createdAt,value
2022-11-29T00:01:53.165Z,8.93
2022-11-29T00:04:20.877Z,9.97
2022-11-29T00:06:48.441Z,9.70
2022-11-29T00:09:18.509Z,9.60
2022-11-29T00:12:03.951Z,8.80
2022-11-29T00:14:31.528Z,8.50
2022-11-29T00:17:02.260Z,9.63
2022-11-29T00:19:30.738Z,8.10
2022-11-29T00:21:58.480Z,8.60
2022-11-29T00:24:28.662Z,9.57
2022-11-29T00:26:56.188Z,9.00
2022-11-29T00:29:24.765Z,9.30
2022-11-29T00:31:52.328Z,9.67
2022-11-29T00:34:19.995Z,9.63
2022-11-29T00:36:47.709Z,9.93
2022-11-29T00:39:16.302Z,10.07
2022-11-29T00:41:45.638Z,9.63
2022-11-29T00:44:19.711Z,9.57
2022-11-29T00:46:50.589Z,8.40
2022-11-29T00:49:18.867Z,10.50
2022-11-29T00:51:47.049Z,9.27
2022-11-29T00:54:14.636Z,8.97
2022-11-29T00:56:42.647Z,9.50
2022-11-29T00:59:11.615Z,9.77
2022-11-29T01:01:39.331Z,9.40
2022-11-29T01:04:06.898Z,10.03
2022-11-29T01:06:34.411Z,9.30
2022-11-29T01:09:02.010Z,9.63
2022-11-29T01:11:29.819Z,10.30
2022-11-29T01:13:58.924Z,9.33
2022-11-29T01:16:31.134Z,9.57
2022-11-29T01:18:59.005Z,9.63
2022-11-29T01:21:26.660Z,10.00
2022-11-29T01:23:54.744Z,9.67
2022-11-29T01:26:24.115Z,9.80
2022-11-29T01:28:53.600Z,9.70
2022-11-29T01:31:23.466Z,8.50
2022-11-29T01:33:55.672Z,9.20
2022-11-29T01:36:23.507Z,9.30
2022-11-29T01:38:51.241Z,9.10
2022-11-29T01:41:21.274Z,8.83
2022-11-29T01:43:57.572Z,10.00
2022-11-29T01:46:27.498Z,8.87
2022-11-29T01:49:01.627Z,8.40
2022-11-29T01:51:30.319Z,9.07
2022-11-29T01:53:58.187Z,8.33
2022-11-29T01:56:26.585Z,10.67
2022-11-29T01:58:55.642Z,10.00
2022-11-29T02:01:27.421Z,9.07
2022-11-29T02:03:56.734Z,9.50
2022-11-29T02:06:24.989Z,8.97
2022-11-29T02:08:52.712Z,9.73
2022-11-29T02:12:08.535Z,9.40
2022-11-29T02:15:00.438Z,9.57
2022-11-29T02:17:37.989Z,9.33
2022-11-29T02:20:36.839Z,8.73
2022-11-29T02:23:31.819Z,9.20
2022-11-29T02:26:13.070Z,9.60
2022-11-29T02:29:04.063Z,9.43
2022-11-29T02:32:22.510Z,9.10
2022-11-29T02:34:59.366Z,8.67
2022-11-29T02:37:47.544Z,8.30
2022-11-29T02:40:36.270Z,9.90
2022-11-29T02:43:29.314Z,9.30
2022-11-29T02:46:12.982Z,8.23
2022-11-29T02:48:56.599Z,10.03
2022-11-29T02:51:31.830Z,9.07
2022-11-29T02:54:07.333Z,8.70
2022-11-29T02:56:45.144Z,8.60
2022-11-29T02:59:21.497Z,8.80
2022-11-29T03:01:58.831Z,10.40
2022-11-29T03:04:34.795Z,9.80
2022-11-29T03:07:07.255Z,9.87
2022-11-29T03:09:40.994Z,10.10
2022-11-29T03:12:19.540Z,8.60
2022-11-29T03:14:58.295Z,9.30
2022-11-29T03:17:39.118Z,8.80
2022-11-29T03:20:28.450Z,9.37
2022-11-29T03:23:15.202Z,8.80
2022-11-29T03:25:47.052Z,8.27
2022-11-29T03:28:19.823Z,8.77
2022-11-29T03:30:56.685Z,8.07
2022-11-29T03:33:33.610Z,8.80
2022-11-29T03:36:12.577Z,9.20
2022-11-29T03:38:43.158Z,8.67
2022-11-29T03:41:19.357Z,9.20
2022-11-29T03:43:56.553Z,9.83
2022-11-29T03:46:30.259Z,9.90
2022-11-29T03:49:04.628Z,9.50
2022-11-29T03:51:50.317Z,8.47
2022-11-29T03:54:26.820Z,8.83
2022-11-29T03:56:55.208Z,9.30
2022-11-29T03:59:35.007Z,9.57
2022-11-29T04:02:21.087Z,8.53
2022-11-29T04:05:14.466Z,8.73
2022-11-29T04:08:06.353Z,8.63
2022-11-29T04:10:53.695Z,8.30
2022-11-29T04:13:40.401Z,8.03
2022-11-29T04:16:40.085Z,9.07
2022-11-29T04:19:33.977Z,9.20
2022-11-29T04:22:29.980Z,8.60
2022-11-29T04:25:26.499Z,8.43
2022-11-29T04:28:33.808Z,8.57
2022-11-29T04:31:10.072Z,8.67
2022-11-29T04:34:06.296Z,8.80
2022-11-29T04:36:51.125Z,8.40
2022-11-29T04:39:46.975Z,8.10
2022-11-29T04:42:34.983Z,9.80
2022-11-29T04:45:41.417Z,8.67
2022-11-29T04:48:30.759Z,8.63
2022-11-29T04:51:10.565Z,9.50
2022-11-29T04:53:53.825Z,9.57
2022-11-29T04:56:30.153Z,9.10
2022-11-29T04:59:11.156Z,9.50
2022-11-29T05:01:53.837Z,9.40
2022-11-29T05:04:29.286Z,8.80
2022-11-29T05:07:06.804Z,8.83
2022-11-29T05:09:48.219Z,8.43
2022-11-29T05:12:24.656Z,8.73
2022-11-29T05:15:15.495Z,9.00
2022-11-29T05:18:06.431Z,9.83
2022-11-29T05:20:46.424Z,9.70
2022-11-29T05:23:31.081Z,9.47
2022-11-29T05:26:04.617Z,9.97
2022-11-29T05:28:42.554Z,9.10
2022-11-29T05:31:52.464Z,8.90
2022-11-29T05:34:35.225Z,9.30
2022-11-29T05:37:12.919Z,8.63
2022-11-29T05:39:53.813Z,9.43
2022-11-29T05:42:39.451Z,9.77
2022-11-29T05:45:13.715Z,10.50
2022-11-29T05:47:51.158Z,10.03
2022-11-29T05:50:25.091Z,8.00
2022-11-29T05:53:02.086Z,9.50
2022-11-29T05:55:43.046Z,8.93
2022-11-29T05:58:19.700Z,9.33
2022-11-29T06:00:53.547Z,9.63
2022-11-29T06:03:33.881Z,9.67
2022-11-29T06:06:08.052Z,9.90
2022-11-29T06:08:44.250Z,9.37
2022-11-29T06:11:18.158Z,9.80
2022-11-29T06:14:03.263Z,10.20
2022-11-29T06:16:57.229Z,9.27
2022-11-29T06:19:53.121Z,9.00
2022-11-29T06:23:01.857Z,11.20
2022-11-29T06:25:47.057Z,9.67
2022-11-29T06:28:32.514Z,10.70
2022-11-29T06:31:05.953Z,10.97
2022-11-29T06:33:42.471Z,9.77
2022-11-29T06:36:19.730Z,10.80
2022-11-29T06:38:47.879Z,11.67
2022-11-29T06:41:20.334Z,10.73
2022-11-29T06:43:49.969Z,11.43
2022-11-29T06:46:31.378Z,10.37
2022-11-29T06:49:08.274Z,10.80
2022-11-29T06:51:47.430Z,10.07
2022-11-29T06:54:27.039Z,11.53
2022-11-29T06:57:03.762Z,11.20
2022-11-29T06:59:47.545Z,9.60
2022-11-29T07:02:36.925Z,10.47
2022-11-29T07:05:14.865Z,11.10
2022-11-29T07:07:46.177Z,9.40
2022-11-29T07:10:19.099Z,9.63
2022-11-29T07:12:48.305Z,10.20
2022-11-29T07:15:17.748Z,9.57
2022-11-29T07:17:56.377Z,10.00
2022-11-29T07:20:38.156Z,10.87
2022-11-29T07:23:18.391Z,9.80
2022-11-29T07:25:58.817Z,9.90
2022-11-29T07:28:44.570Z,10.43
2022-11-29T07:31:21.437Z,9.53
2022-11-29T07:33:59.077Z,9.17
2022-11-29T07:36:35.018Z,10.10
2022-11-29T07:39:18.576Z,9.43
2022-11-29T07:41:55.153Z,10.30
2022-11-29T07:44:33.135Z,10.40
2022-11-29T07:47:01.996Z,10.60
2022-11-29T07:49:30.048Z,9.80
2022-11-29T07:52:00.124Z,10.50
2022-11-29T07:54:29.193Z,9.40
2022-11-29T07:56:57.124Z,9.43
2022-11-29T07:59:24.701Z,9.00
2022-11-29T08:01:52.693Z,9.80
2022-11-29T08:04:20.398Z,10.40
2022-11-29T08:06:50.557Z,11.20
2022-11-29T08:09:18.719Z,9.90
2022-11-29T08:11:48.802Z,9.63
2022-11-29T08:14:16.442Z,9.60
2022-11-29T08:16:44.374Z,9.83
2022-11-29T08:19:12.067Z,8.87
2022-11-29T08:21:39.856Z,9.63
2022-11-29T08:24:07.547Z,9.77
2022-11-29T08:26:35.289Z,9.50
2022-11-29T08:29:04.456Z,9.10
2022-11-29T08:31:32.203Z,9.77
2022-11-29T08:33:59.882Z,9.13
2022-11-29T08:36:27.492Z,10.30
2022-11-29T08:39:03.445Z,9.30
2022-11-29T08:41:35.255Z,9.70
2022-11-29T08:44:05.629Z,9.20
2022-11-29T08:46:47.568Z,9.10
2022-11-29T08:49:15.249Z,9.10
2022-11-29T08:51:43.413Z,11.00
2022-11-29T08:54:12.860Z,10.10
2022-11-29T08:59:30.299Z,10.13
2022-11-29T09:01:58.106Z,11.07
2022-11-29T09:04:25.762Z,10.53
2022-11-29T09:06:53.379Z,11.03
2022-11-29T09:09:20.896Z,9.70
2022-11-29T09:11:50.532Z,10.50
2022-11-29T09:14:19.876Z,9.73
2022-11-29T09:16:52.125Z,10.90
2022-11-29T09:19:20.110Z,10.57
2022-11-29T09:21:49.390Z,10.20
2022-11-29T09:24:17.071Z,10.87
2022-11-29T09:26:48.382Z,10.60
2022-11-29T09:29:17.323Z,11.60
2022-11-29T09:31:53.535Z,11.63
2022-11-29T09:34:22.708Z,11.60
2022-11-29T09:36:50.369Z,12.33
2022-11-29T09:39:18.028Z,12.30
2022-11-29T09:42:17.843Z,12.20
2022-11-29T09:44:59.337Z,11.80
2022-11-29T09:47:58.126Z,10.77
2022-11-29T09:50:35.358Z,11.00
2022-11-29T09:53:21.884Z,10.93
2022-11-29T09:56:12.288Z,10.93
2022-11-29T09:58:46.093Z,11.40
2022-11-29T10:01:24.078Z,11.17
2022-11-29T10:03:55.439Z,11.53
2022-11-29T10:06:27.819Z,10.47
2022-11-29T10:09:02.552Z,11.10
2022-11-29T10:11:36.886Z,10.20
2022-11-29T10:14:13.321Z,14.90
2022-11-29T10:16:46.534Z,10.23
2022-11-29T10:19:25.201Z,10.40
2022-11-29T10:22:03.969Z,10.43
2022-11-29T10:24:34.457Z,10.13
2022-11-29T10:27:03.693Z,11.10
2022-11-29T10:29:32.156Z,11.20
2022-11-29T10:32:10.086Z,9.37
2022-11-29T10:34:38.276Z,10.50
2022-11-29T10:37:16.882Z,9.77
2022-11-29T10:39:48.164Z,11.30
2022-11-29T10:42:38.701Z,10.70
2022-11-29T10:45:16.684Z,11.43
2022-11-29T10:47:47.409Z,12.47
2022-11-29T10:50:19.923Z,11.37
2022-11-29T10:52:49.289Z,10.67
2022-11-29T10:55:21.312Z,10.90
2022-11-29T10:58:15.443Z,10.40
2022-11-29T11:00:58.545Z,10.73
2022-11-29T11:03:32.034Z,11.10
2022-11-29T11:06:03.598Z,10.77
2022-11-29T11:08:34.857Z,10.37
2022-11-29T11:11:04.533Z,12.00
2022-11-29T11:13:34.609Z,11.30
2022-11-29T11:16:10.663Z,11.80
2022-11-29T11:18:39.114Z,11.20
2022-11-29T11:21:20.182Z,12.07
2022-11-29T11:23:56.527Z,13.23
2022-11-29T11:26:26.791Z,11.90
2022-11-29T11:28:58.995Z,12.73
2022-11-29T11:31:30.010Z,11.83
2022-11-29T11:33:58.015Z,13.27
2022-11-29T11:36:27.472Z,12.90
2022-11-29T11:38:59.132Z,12.47
2022-11-29T11:41:45.428Z,12.97
2022-11-29T11:47:24.079Z,12.40
2022-11-29T11:49:57.131Z,13.07
2022-11-29T11:52:39.845Z,11.23
2022-11-29T11:55:37.641Z,13.37
2022-11-29T11:58:16.715Z,13.37
2022-11-29T12:01:04.797Z,14.10
2022-11-29T12:03:45.172Z,13.77
2022-11-29T12:06:28.309Z,12.20
2022-11-29T12:09:03.407Z,13.40
2022-11-29T12:11:44.282Z,13.20
2022-11-29T12:14:23.742Z,13.30
2022-11-29T12:17:00.675Z,13.63
2022-11-29T12:19:37.120Z,14.50
2022-11-29T12:22:31.421Z,15.10
2022-11-29T12:25:09.522Z,15.00
2022-11-29T12:27:40.600Z,16.30
2022-11-29T12:30:13.782Z,16.60
2022-11-29T12:32:58.908Z,14.63
2022-11-29T12:35:51.592Z,15.57
2022-11-29T12:38:43.445Z,15.40
2022-11-29T12:41:29.260Z,13.80
2022-11-29T12:44:13.401Z,14.20
2022-11-29T12:46:45.003Z,16.03
2022-11-29T12:49:21.867Z,15.40
2022-11-29T12:51:58.868Z,15.60
2022-11-29T12:54:41.118Z,14.90
2022-11-29T12:57:19.092Z,13.47
2022-11-29T13:00:06.969Z,14.60
2022-11-29T13:02:49.184Z,14.20
2022-11-29T13:05:30.175Z,14.17
2022-11-29T13:08:16.509Z,14.67
2022-11-29T13:10:59.062Z,16.63
2022-11-29T13:13:40.293Z,16.70
2022-11-29T13:16:23.940Z,16.60
2022-11-29T13:19:03.684Z,15.20
2022-11-29T13:21:37.094Z,14.93
2022-11-29T13:24:10.597Z,15.57
2022-11-29T13:26:39.869Z,15.63
2022-11-29T13:29:13.656Z,14.20
2022-11-29T13:31:44.740Z,14.07
2022-11-29T13:34:19.796Z,14.70
2022-11-29T13:37:03.002Z,13.00
2022-11-29T13:39:46.533Z,13.10
2022-11-29T13:42:20.839Z,14.80
2022-11-29T13:44:58.240Z,14.93
2022-11-29T13:47:28.394Z,14.43
2022-11-29T13:49:58.919Z,14.03
2022-11-29T13:52:43.150Z,12.40
2022-11-29T13:55:28.703Z,13.30
2022-11-29T13:58:18.736Z,13.33
2022-11-29T14:00:52.029Z,12.37
2022-11-29T14:03:40.508Z,12.80
2022-11-29T14:06:11.102Z,11.67
2022-11-29T14:09:17.139Z,12.07
2022-11-29T14:11:33.908Z,11.00
2022-11-29T14:14:06.207Z,12.50
2022-11-29T14:16:44.849Z,10.50
2022-11-29T14:19:34.095Z,11.07
2022-11-29T14:22:30.303Z,11.77
2022-11-29T14:25:08.151Z,11.40
2022-11-29T14:27:58.751Z,10.87
2022-11-29T14:30:45.538Z,10.70
2022-11-29T14:33:25.238Z,10.83
2022-11-29T14:36:11.390Z,11.57
2022-11-29T14:38:48.288Z,11.20
2022-11-29T14:41:29.075Z,11.30
2022-11-29T14:44:15.474Z,10.57
2022-11-29T14:46:43.602Z,11.17
2022-11-29T14:49:23.034Z,10.60
2022-11-29T14:52:08.572Z,10.57
2022-11-29T14:54:38.303Z,11.83
2022-11-29T14:57:43.271Z,11.97
2022-11-29T15:00:12.732Z,11.77
2022-11-29T15:02:43.784Z,10.40
2022-11-29T15:05:19.960Z,12.00
2022-11-29T15:07:56.239Z,11.30
2022-11-29T15:10:30.222Z,10.60
2022-11-29T15:13:01.487Z,11.17
2022-11-29T15:15:54.160Z,11.33
2022-11-29T15:18:39.984Z,11.97
2022-11-29T15:21:25.643Z,11.80
2022-11-29T15:24:06.571Z,10.87
2022-11-29T15:26:34.513Z,11.00
2022-11-29T15:29:15.724Z,13.00
2022-11-29T15:31:44.643Z,11.70
2022-11-29T15:34:22.096Z,12.57
2022-11-29T15:36:49.787Z,11.67
2022-11-29T15:39:30.789Z,13.73
2022-11-29T15:42:03.138Z,13.23
2022-11-29T15:44:33.659Z,11.93
2022-11-29T15:47:22.182Z,12.57
2022-11-29T15:49:51.707Z,11.00
2022-11-29T15:52:30.999Z,13.40
2022-11-29T15:55:03.919Z,11.53
2022-11-29T15:57:35.472Z,13.43
2022-11-29T16:00:17.140Z,13.30
2022-11-29T16:02:55.198Z,11.30
2022-11-29T16:05:26.112Z,13.60
2022-11-29T16:07:57.063Z,11.47
2022-11-29T16:10:40.755Z,11.80
2022-11-29T16:13:27.494Z,11.60
2022-11-29T16:16:11.728Z,11.20
2022-11-29T16:18:41.694Z,12.23
2022-11-29T16:21:24.506Z,11.93
2022-11-29T16:23:54.745Z,11.57
2022-11-29T16:26:29.564Z,11.80
2022-11-29T16:28:58.570Z,13.27
2022-11-29T16:31:34.094Z,12.87
2022-11-29T16:34:09.212Z,13.73
2022-11-29T16:36:37.851Z,11.90
2022-11-29T16:39:07.908Z,11.60
2022-11-29T16:41:45.599Z,12.57
2022-11-29T16:44:55.376Z,14.10
2022-11-29T16:47:24.685Z,11.37
2022-11-29T16:50:28.626Z,11.47
2022-11-29T16:52:57.313Z,12.40
2022-11-29T16:55:28.178Z,11.33
2022-11-29T16:58:00.856Z,10.03
2022-11-29T17:00:33.226Z,9.80
2022-11-29T17:03:02.525Z,10.53
2022-11-29T17:05:30.336Z,9.33
2022-11-29T17:07:59.544Z,10.33
2022-11-29T17:10:28.788Z,10.40
2022-11-29T17:12:57.830Z,9.73
2022-11-29T17:15:26.802Z,9.80
2022-11-29T17:17:55.696Z,10.57
2022-11-29T17:20:29.889Z,10.40
2022-11-29T17:23:00.267Z,10.70
2022-11-29T17:25:31.482Z,11.57
2022-11-29T17:28:05.271Z,11.47
2022-11-29T17:30:36.085Z,9.50
2022-11-29T17:33:04.234Z,10.77
2022-11-29T17:35:44.994Z,11.70
2022-11-29T17:38:16.279Z,10.33
2022-11-29T17:40:47.744Z,11.40
2022-11-29T17:43:17.050Z,11.30
2022-11-29T17:45:44.999Z,10.23
2022-11-29T17:48:35.908Z,11.00
2022-11-29T17:51:36.035Z,9.73
2022-11-29T17:54:02.999Z,9.67
2022-11-29T17:56:33.820Z,10.40
2022-11-29T17:59:12.789Z,10.90
2022-11-29T18:01:41.794Z,10.00
2022-11-29T18:04:10.437Z,9.60
2022-11-29T18:06:42.659Z,11.20
2022-11-29T18:09:12.176Z,10.53
2022-11-29T18:11:48.302Z,9.60
2022-11-29T18:14:27.631Z,11.27
2022-11-29T18:16:57.617Z,10.03
2022-11-29T18:19:29.657Z,10.30
2022-11-29T18:22:00.169Z,11.70
2022-11-29T18:24:29.348Z,10.73
2022-11-29T18:26:58.847Z,10.90
2022-11-29T18:29:32.697Z,10.93
2022-11-29T18:32:06.675Z,10.83
2022-11-29T18:34:39.841Z,10.67
2022-11-29T18:37:32.853Z,10.70
2022-11-29T18:40:07.209Z,11.27
2022-11-29T18:42:50.034Z,11.50
2022-11-29T18:45:20.000Z,10.97
2022-11-29T18:50:35.587Z,10.87
2022-11-29T18:53:05.470Z,11.67
2022-11-29T18:55:33.749Z,10.23
2022-11-29T18:58:04.599Z,12.23
2022-11-29T19:00:34.972Z,11.00
2022-11-29T19:03:04.167Z,11.00
2022-11-29T19:05:31.893Z,11.83
2022-11-29T19:07:59.894Z,11.20
2022-11-29T19:10:27.709Z,10.43
2022-11-29T19:12:55.742Z,9.53
2022-11-29T19:15:23.309Z,9.60
2022-11-29T19:17:53.762Z,10.90
2022-11-29T19:20:22.367Z,9.33
2022-11-29T19:22:50.116Z,9.23
2022-11-29T19:25:21.882Z,9.57
2022-11-29T19:27:51.898Z,10.20
2022-11-29T19:30:23.245Z,10.67
2022-11-29T19:32:57.907Z,9.93
2022-11-29T19:35:34.164Z,9.57
2022-11-29T19:38:06.678Z,10.17
2022-11-29T19:40:34.544Z,9.93
2022-11-29T19:43:02.220Z,9.30
2022-11-29T19:45:30.504Z,10.20
2022-11-29T19:48:00.212Z,10.17
2022-11-29T19:50:29.241Z,10.73
2022-11-29T19:53:00.173Z,10.37
2022-11-29T19:55:31.055Z,10.37
2022-11-29T19:58:03.983Z,10.00
2022-11-29T20:00:32.427Z,9.80
2022-11-29T20:03:02.593Z,10.50
2022-11-29T20:05:30.442Z,9.90
2022-11-29T20:07:58.555Z,11.10
2022-11-29T20:10:27.777Z,11.47
2022-11-29T20:12:58.998Z,11.37
2022-11-29T20:15:33.519Z,10.67
2022-11-29T20:18:05.076Z,10.27
2022-11-29T20:20:34.708Z,10.50
2022-11-29T20:23:02.575Z,10.73
2022-11-29T20:25:30.487Z,11.23
2022-11-29T20:28:00.488Z,11.10
2022-11-29T20:30:28.716Z,10.10
2022-11-29T20:33:03.603Z,10.60
2022-11-29T20:35:31.769Z,10.23
2022-11-29T20:38:23.262Z,11.33
2022-11-29T20:41:03.123Z,10.07
2022-11-29T20:43:39.850Z,11.23
2022-11-29T20:46:08.388Z,9.57
2022-11-29T20:48:46.551Z,9.73
2022-11-29T20:51:19.250Z,10.07
2022-11-29T20:53:49.016Z,9.37
2022-11-29T20:56:18.365Z,10.93
2022-11-29T20:58:46.596Z,11.03
2022-11-29T21:01:14.948Z,10.90
2022-11-29T21:03:45.146Z,10.17
2022-11-29T21:06:15.874Z,9.90
2022-11-29T21:08:47.055Z,9.93
2022-11-29T21:11:26.093Z,9.70
2022-11-29T21:13:54.293Z,9.77
2022-11-29T21:16:28.760Z,9.33
2022-11-29T21:19:06.753Z,10.00
2022-11-29T21:21:45.796Z,10.80
2022-11-29T21:24:31.261Z,9.50
2022-11-29T21:27:00.967Z,9.70
2022-11-29T21:29:32.315Z,10.10
2022-11-29T21:32:02.128Z,10.23
2022-11-29T21:34:31.297Z,9.73
2022-11-29T21:37:01.799Z,11.20
2022-11-29T21:39:36.351Z,10.40
2022-11-29T21:42:05.470Z,11.07
2022-11-29T21:44:33.927Z,10.00
2022-11-29T21:47:03.361Z,10.67
2022-11-29T21:49:34.970Z,11.67
2022-11-29T21:52:06.159Z,10.03
2022-11-29T21:54:34.046Z,12.23
2022-11-29T21:57:04.439Z,9.83
2022-11-29T21:59:33.326Z,10.20
2022-11-29T22:02:04.879Z,10.20
2022-11-29T22:04:40.067Z,9.47
2022-11-29T22:07:10.813Z,9.60
2022-11-29T22:09:38.904Z,10.20
2022-11-29T22:12:31.841Z,9.23
2022-11-29T22:15:01.859Z,8.67
2022-11-29T22:17:29.465Z,10.17
2022-11-29T22:19:58.584Z,9.50
2022-11-29T22:22:28.315Z,9.50
2022-11-29T22:24:57.432Z,10.03
2022-11-29T22:27:30.682Z,8.80
2022-11-29T22:29:59.781Z,9.33
2022-11-29T22:32:29.783Z,8.60
2022-11-29T22:34:59.059Z,9.67
2022-11-29T22:37:32.280Z,11.20
2022-11-29T22:40:00.404Z,8.40
2022-11-29T22:42:28.073Z,8.50
2022-11-29T22:45:04.400Z,9.47
2022-11-29T22:47:32.701Z,8.47
2022-11-29T22:50:05.836Z,8.60
2022-11-29T22:52:35.132Z,8.80
2022-11-29T22:55:05.116Z,10.60
2022-11-29T22:57:36.327Z,7.57
2022-11-29T23:00:05.482Z,7.80
2022-11-29T23:02:34.727Z,8.43
2022-11-29T23:05:04.580Z,8.00
2022-11-29T23:07:32.561Z,7.80
2022-11-29T23:10:01.905Z,9.30
2022-11-29T23:12:29.536Z,7.73
2022-11-29T23:14:57.808Z,9.57
2022-11-29T23:17:25.856Z,8.17
2022-11-29T23:19:53.756Z,7.67
2022-11-29T23:22:22.990Z,7.60
2022-11-29T23:24:50.688Z,6.53
2022-11-29T23:27:18.400Z,7.00
2022-11-29T23:29:46.032Z,8.30
2022-11-29T23:32:14.000Z,7.57
2022-11-29T23:34:41.568Z,7.57
2022-11-29T23:37:09.557Z,8.67
2022-11-29T23:39:38.581Z,7.90
2022-11-29T23:42:06.453Z,8.80
2022-11-29T23:44:36.341Z,7.40
2022-11-29T23:47:03.962Z,7.53
2022-11-29T23:49:31.615Z,8.73
2022-11-29T23:51:59.450Z,7.63
2022-11-29T23:54:27.123Z,8.80
2022-11-29T23:56:56.078Z,7.87
2022-11-29T23:59:23.718Z,8.17
